Here is the Quick Look data you requested

The Data originates at the National Weather Service, and is made available here by the UAlbany Department of Atmospheric and Environmental Sciences

Surface Observations

KHGR 241153Z 33007KT 10SM CLR 14/06 A2990 RMK AO2 SLP131 70003 T01390061 10194
 20133 53028=
KHGR 241253Z 31013KT 10SM CLR 15/05 A2991 RMK AO2 SLP135 T01500050=
KHGR 241353Z 29013KT 10SM CLR 16/05 A2991 RMK AO2 SLP136 T01560050=
KHGR 241453Z 28014G22KT 10SM CLR 17/04 A2992 RMK AO2 SLP137 T01720044 51006=
KHGR 241553Z 29010KT 10SM CLR 18/06 A2990 RMK AO2 SLP132 T01830056=
KHGR 241653Z 29010KT 10SM CLR 19/03 A2990 RMK AO2 SLP130 T01890028=
KHGR 241753Z 32010KT 10SM CLR 21/04 A2988 RMK AO2 SLP123 T02060044 10206 20139
 58014=
KHGR 241853Z 33010KT 10SM CLR 22/03 A2985 RMK AO2 SLP113 T02220033=
KHGR 241953Z 31011KT 10SM CLR 23/03 A2985 RMK AO2 SLP111 T02280033=
KHGR 242053Z 34011KT 10SM CLR 22/02 A2985 RMK AO2 SLP112 T02220017 56010=
KHGR 242153Z 35010KT 10SM SCT110 21/02 A2985 RMK AO2 SLP115 T02110022=
KHGR 242253Z 34007KT 10SM SCT110 21/03 A2986 RMK AO2 SLP117 T02060028=
KHGR 242353Z 34006KT 10SM SCT120 18/03 A2986 RMK AO2 SLP120 T01830028 10228
 20183 53006=
KHGR 250053Z 34005KT 10SM CLR 17/02 A2988 RMK AO2 SLP126 T01720022=
KHGR 250153Z 00000KT 10SM CLR 16/03 A2990 RMK AO2 SLP133 T01610028=
KHGR 250253Z AUTO 00000KT 10SM CLR 17/02 A2991 RMK AO2 SLP135 T01720017 51015=
KHGR 250353Z AUTO 08003KT 10SM SCT120 15/03 A2991 RMK AO2 SLP137 T01500033=
KHGR 250453Z AUTO 09004KT 10SM BKN110 17/02 A2990 RMK AO2 SLP133 T01670017
 402280133=
KHGR 250553Z AUTO 02005KT 10SM CLR 14/02 A2990 RMK AO2 SLP132 T01440022 10189
 20144 58003=
KHGR 250653Z AUTO 00000KT 10SM BKN100 16/02 A2989 RMK AO2 SLP128 T01560022=
KHGR 250753Z AUTO 00000KT 10SM OVC095 14/04 A2990 RMK AO2 SLP132 T01440044=
KHGR 250853Z AUTO 00000KT 10SM OVC095 14/04 A2990 RMK AO2 RAB44E53 SLP131 P0000
 60000 T01440044 56001=
KHGR 250953Z AUTO 07003KT 10SM OVC090 13/07 A2991 RMK AO2 SLP136 T01330067=
KHGR 251053Z 00000KT 10SM OVC100 14/04 A2993 RMK AO2 SLP142 T01440044=
KHGR 251153Z 07003KT 10SM OVC095 14/05 A2993 RMK AO2 SLP145 60000 T01440050
 10161 20133 51012=
KHGR 251253Z 07003KT 10SM FEW055 OVC095 16/06 A2992 RMK AO2 SLP141 T01560056=
KHGR 251353Z 31005KT 10SM BKN065 BKN075 OVC090 15/09 A2994 RMK AO2 SLP145
 T01500094=
KHGR 251453Z 00000KT 10SM FEW070 OVC090 16/09 A2993 RMK AO2 RAB01E12 SLP144
 P0000 60000 T01560094 56001=
KHGR 251553Z 00000KT 10SM FEW065 OVC090 16/09 A2992 RMK AO2 RAB1455E36 SLP140
 P0000 T01610094=
KHGR 251653Z 34007KT 9SM -RA OVC070 16/10 A2991 RMK AO2 RAB49 SLP137 P0000
 T01610100=
KHGR 251753Z 03005KT 10SM FEW070 FEW085 BKN110 17/08 A2990 RMK AO2 RAE03 SLP132
 P0000 60000 T01720078 10172 20144 58012=